createdAt,value
2023-05-19T00:00:02.364Z,99276.97
2023-05-19T00:02:39.739Z,99263.50
2023-05-19T00:05:07.444Z,99259.31
2023-05-19T00:07:38.243Z,99253.31
2023-05-19T00:10:06.506Z,99269.16
2023-05-19T00:12:33.680Z,99271.31
2023-05-19T00:15:00.863Z,99278.47
2023-05-19T00:17:27.830Z,99282.84
2023-05-19T00:19:54.864Z,99281.56
2023-05-19T00:22:21.835Z,99274.63
2023-05-19T00:24:49.224Z,99279.31
2023-05-19T00:27:16.245Z,99259.09
2023-05-19T00:29:43.227Z,99280.81
2023-05-19T00:32:10.393Z,99281.16
2023-05-19T00:34:37.524Z,99275.34
2023-05-19T00:37:04.489Z,99282.47
2023-05-19T00:39:31.417Z,99273.72
2023-05-19T00:41:58.446Z,99298.53
2023-05-19T00:44:25.457Z,99286.06
2023-05-19T00:46:52.376Z,99292.88
2023-05-19T00:49:19.283Z,99298.06
2023-05-19T00:51:46.437Z,99289.22
2023-05-19T00:54:13.419Z,99298.25
2023-05-19T00:56:40.534Z,99300.06
2023-05-19T00:59:08.147Z,99295.69
2023-05-19T01:01:35.314Z,99293.94
2023-05-19T01:04:04.634Z,99304.97
2023-05-19T01:06:31.841Z,99314.22
2023-05-19T01:08:59.231Z,99302.22
2023-05-19T01:11:26.148Z,99297.09
2023-05-19T01:13:53.060Z,99290.63
2023-05-19T01:17:06.692Z,99299.25
2023-05-19T01:19:56.564Z,99298.63
2023-05-19T01:23:05.247Z,99304.19
2023-05-19T01:26:03.271Z,99303.22
2023-05-19T01:28:36.265Z,99301.59
2023-05-19T01:31:07.507Z,99306.31
2023-05-19T01:33:35.978Z,99310.56
2023-05-19T01:36:05.221Z,99315.75
2023-05-19T01:38:34.140Z,99309.94
2023-05-19T01:41:03.961Z,99310.75
2023-05-19T01:43:31.784Z,99297.78
2023-05-19T01:45:59.463Z,99289.66
2023-05-19T01:48:27.261Z,99315.63
2023-05-19T01:50:55.130Z,99322.13
2023-05-19T01:53:22.070Z,99314.50
2023-05-19T01:55:57.030Z,99325.03
2023-05-19T01:58:48.379Z,99321.59
2023-05-19T02:01:24.708Z,99324.38
2023-05-19T02:04:05.353Z,99321.13
2023-05-19T02:06:51.297Z,99327.13
2023-05-19T02:09:54.764Z,99326.97
2023-05-19T02:12:34.610Z,99314.81
2023-05-19T02:15:05.050Z,99325.69
2023-05-19T02:17:41.671Z,99330.72
2023-05-19T02:20:10.513Z,99320.38
2023-05-19T02:22:37.696Z,99327.34
2023-05-19T02:25:05.071Z,99329.28
2023-05-19T02:27:34.336Z,99341.47
2023-05-19T02:30:03.976Z,99324.44
2023-05-19T02:32:32.185Z,99340.81
2023-05-19T02:35:00.193Z,99350.72
2023-05-19T02:37:28.715Z,99350.44
2023-05-19T02:39:56.414Z,99350.44
2023-05-19T02:42:23.768Z,99350.47
2023-05-19T02:44:52.301Z,99348.84
2023-05-19T02:47:20.135Z,99357.63
2023-05-19T02:49:47.295Z,99355.19
2023-05-19T02:52:15.801Z,99360.38
2023-05-19T02:54:43.260Z,99358.41
2023-05-19T02:57:11.151Z,99365.56
2023-05-19T02:59:38.205Z,99357.94
2023-05-19T03:02:05.415Z,99368.66
2023-05-19T03:04:32.455Z,99375.78
2023-05-19T03:06:59.411Z,99359.06
2023-05-19T03:09:26.645Z,99362.97
2023-05-19T03:11:54.314Z,99374.66
2023-05-19T03:14:24.352Z,99382.94
2023-05-19T03:16:51.720Z,99382.13
2023-05-19T03:19:18.948Z,99382.13
2023-05-19T03:21:46.503Z,99389.59
2023-05-19T03:24:13.979Z,99387.50
2023-05-19T03:26:41.096Z,99402.72
2023-05-19T03:29:08.506Z,99397.06
2023-05-19T03:31:37.394Z,99378.72
2023-05-19T03:34:05.365Z,99411.63
2023-05-19T03:36:32.413Z,99410.16
2023-05-19T03:39:00.580Z,99397.81
2023-05-19T03:41:27.838Z,99402.03
2023-05-19T03:43:55.671Z,99380.13
2023-05-19T03:46:22.868Z,99419.88
2023-05-19T03:49:02.562Z,99415.66
2023-05-19T03:51:30.263Z,99414.06
2023-05-19T03:54:05.319Z,99415.84
2023-05-19T03:56:32.939Z,99413.41
2023-05-19T03:59:00.309Z,99416.78
2023-05-19T04:01:27.381Z,99398.78
2023-05-19T04:03:54.562Z,99430.28
2023-05-19T04:06:22.280Z,99422.16
2023-05-19T04:08:49.548Z,99428.50
2023-05-19T04:11:16.615Z,99435.00
2023-05-19T04:13:45.170Z,99431.41
2023-05-19T04:16:12.715Z,99431.91
2023-05-19T04:18:39.850Z,99437.25
2023-05-19T04:21:08.705Z,99447.47
2023-05-19T04:23:35.747Z,99434.47
2023-05-19T04:26:03.838Z,99421.31
2023-05-19T04:28:30.942Z,99408.66
2023-05-19T04:30:58.877Z,99424.84
2023-05-19T04:33:26.316Z,99421.38
2023-05-19T04:35:53.489Z,99423.31
2023-05-19T04:38:22.226Z,99438.53
2023-05-19T04:40:50.844Z,99435.06
2023-05-19T04:43:19.610Z,99442.31
2023-05-19T04:45:47.581Z,99439.84
2023-05-19T04:48:15.232Z,99426.16
2023-05-19T04:50:42.490Z,99435.13
2023-05-19T04:53:19.086Z,99429.06
2023-05-19T04:55:46.211Z,99431.56
2023-05-19T04:58:13.856Z,99439.91
2023-05-19T05:00:40.840Z,99439.28
2023-05-19T05:03:09.211Z,99424.50
2023-05-19T05:05:36.295Z,99440.50
2023-05-19T05:08:03.353Z,99435.56
2023-05-19T05:10:35.749Z,99442.38
2023-05-19T05:13:03.109Z,99449.34
2023-05-19T05:15:30.538Z,99444.38
2023-05-19T05:18:00.817Z,99460.00
2023-05-19T05:20:28.249Z,99452.53
2023-05-19T05:22:56.077Z,99456.59
2023-05-19T05:25:23.591Z,99455.50
2023-05-19T05:27:51.242Z,99460.78
2023-05-19T05:30:18.713Z,99457.56
2023-05-19T05:32:46.465Z,99457.91
2023-05-19T05:35:28.229Z,99465.91
2023-05-19T05:37:55.986Z,99459.88
2023-05-19T05:40:23.192Z,99466.69
2023-05-19T05:42:50.268Z,99468.59
2023-05-19T05:45:20.147Z,99463.50
2023-05-19T05:47:47.748Z,99467.06
2023-05-19T05:50:15.025Z,99459.78
2023-05-19T05:52:47.714Z,99476.69
2023-05-19T05:55:19.510Z,99471.78
2023-05-19T05:57:48.870Z,99477.06
2023-05-19T06:00:16.625Z,99466.25
2023-05-19T06:02:49.653Z,99484.66
2023-05-19T06:05:18.013Z,99484.88
2023-05-19T06:07:46.976Z,99474.94
2023-05-19T06:10:19.298Z,99484.56
2023-05-19T06:12:47.891Z,99488.78
2023-05-19T06:15:16.380Z,99497.16
2023-05-19T06:17:50.846Z,99490.41
2023-05-19T06:20:18.937Z,99492.28
2023-05-19T06:22:46.092Z,99497.59
2023-05-19T06:25:16.994Z,99501.34
2023-05-19T06:27:44.322Z,99504.59
2023-05-19T06:30:12.431Z,99507.38
2023-05-19T06:32:49.792Z,99500.16
2023-05-19T06:35:17.249Z,99499.16
2023-05-19T06:37:44.186Z,99511.72
2023-05-19T06:40:12.247Z,99505.50
2023-05-19T06:42:40.180Z,99519.06
2023-05-19T06:45:15.447Z,99520.59
2023-05-19T06:47:42.766Z,99520.72
2023-05-19T06:50:10.703Z,99512.03
2023-05-19T06:52:41.388Z,99523.38
2023-05-19T06:55:08.743Z,99528.31
2023-05-19T06:57:38.233Z,99522.56
2023-05-19T07:00:10.368Z,99529.31
2023-05-19T07:02:39.397Z,99532.59
2023-05-19T07:05:06.853Z,99528.22
2023-05-19T07:07:34.805Z,99526.78
2023-05-19T07:10:02.849Z,99529.34
2023-05-19T07:12:32.707Z,99534.72
2023-05-19T07:14:59.869Z,99520.75
2023-05-19T07:17:28.048Z,99519.22
2023-05-19T07:19:55.205Z,99521.59
2023-05-19T07:22:22.315Z,99495.66
2023-05-19T07:24:50.566Z,99508.94
2023-05-19T07:27:18.044Z,99520.97
2023-05-19T07:29:45.896Z,99526.34
2023-05-19T07:32:14.396Z,99520.53
2023-05-19T07:34:41.597Z,99525.13
2023-05-19T07:37:08.736Z,99528.44
2023-05-19T07:39:36.109Z,99515.00
2023-05-19T07:42:03.493Z,99529.88
2023-05-19T07:44:31.677Z,99533.91
2023-05-19T07:46:59.177Z,99526.59
2023-05-19T07:49:26.657Z,99523.19
2023-05-19T07:51:54.258Z,99526.78
2023-05-19T07:54:21.447Z,99522.22
2023-05-19T07:56:48.503Z,99519.59
2023-05-19T07:59:16.253Z,99536.56
2023-05-19T08:01:43.490Z,99532.59
2023-05-19T08:04:12.833Z,99530.81
2023-05-19T08:06:43.083Z,99528.06
2023-05-19T08:09:10.326Z,99513.50
2023-05-19T08:11:37.652Z,99529.22
2023-05-19T08:14:04.674Z,99530.22
2023-05-19T08:16:31.905Z,99519.63
2023-05-19T08:19:01.242Z,99522.28
2023-05-19T08:21:28.511Z,99510.50
2023-05-19T08:23:57.214Z,99520.59
2023-05-19T08:26:24.233Z,99520.22
2023-05-19T08:28:51.268Z,99513.06
2023-05-19T08:31:19.044Z,99517.03
2023-05-19T08:33:46.670Z,99514.88
2023-05-19T08:36:14.288Z,99509.03
2023-05-19T08:38:41.151Z,99516.09
2023-05-19T08:41:08.347Z,99518.59
2023-05-19T08:43:35.590Z,99518.28
2023-05-19T08:46:04.053Z,99524.84
2023-05-19T08:48:31.636Z,99520.56
2023-05-19T08:51:27.102Z,99510.69
2023-05-19T08:54:00.474Z,99517.97
2023-05-19T08:56:28.189Z,99500.41
2023-05-19T08:58:59.763Z,99508.50
2023-05-19T09:01:29.495Z,99518.22
2023-05-19T09:03:56.728Z,99499.00
2023-05-19T09:06:24.190Z,99503.03
2023-05-19T09:08:51.153Z,99503.03
2023-05-19T09:11:18.462Z,99505.06
2023-05-19T09:13:46.213Z,99506.72
2023-05-19T09:16:13.384Z,99510.06
2023-05-19T09:18:43.332Z,99514.16
2023-05-19T09:21:11.316Z,99493.09
2023-05-19T09:23:38.456Z,99515.00
2023-05-19T09:26:09.304Z,99503.03
2023-05-19T09:28:37.020Z,99494.56
2023-05-19T09:31:05.234Z,99495.50
2023-05-19T09:33:37.580Z,99503.22
2023-05-19T09:36:13.850Z,99498.47
2023-05-19T09:38:41.587Z,99490.00
2023-05-19T09:41:09.580Z,99490.06
2023-05-19T09:43:36.916Z,99498.56
2023-05-19T09:46:08.061Z,99488.59
2023-05-19T09:48:36.764Z,99489.44
2023-05-19T09:51:08.170Z,99472.09
2023-05-19T09:53:35.536Z,99488.50
2023-05-19T09:56:03.691Z,99483.75
2023-05-19T09:58:37.852Z,99474.53
2023-05-19T10:01:06.046Z,99486.63
2023-05-19T10:03:34.773Z,99481.00
2023-05-19T10:06:03.803Z,99477.78
2023-05-19T10:08:32.397Z,99477.31
2023-05-19T10:11:00.073Z,99467.78
2023-05-19T10:13:29.072Z,99468.56
2023-05-19T10:15:59.205Z,99457.34
2023-05-19T10:18:29.679Z,99454.94
2023-05-19T10:20:58.293Z,99456.13
2023-05-19T10:23:26.238Z,99460.94
2023-05-19T10:25:56.706Z,99453.25
2023-05-19T10:28:28.215Z,99464.94
2023-05-19T10:31:01.534Z,99457.28
2023-05-19T10:34:01.033Z,99450.44
2023-05-19T10:36:50.434Z,99446.38
2023-05-19T10:39:29.185Z,99450.38
2023-05-19T10:41:59.161Z,99453.97
2023-05-19T10:45:10.799Z,99446.78
2023-05-19T10:47:37.826Z,99442.44
2023-05-19T10:50:06.950Z,99442.41
2023-05-19T10:52:37.867Z,99451.66
2023-05-19T10:55:08.876Z,99437.63
2023-05-19T10:57:36.765Z,99428.66
2023-05-19T11:00:25.702Z,99433.47
2023-05-19T11:02:56.539Z,99413.47
2023-05-19T11:05:30.456Z,99393.38
2023-05-19T11:08:07.854Z,99399.03
2023-05-19T11:10:35.084Z,99395.53
2023-05-19T11:13:02.082Z,99387.88
2023-05-19T11:15:29.163Z,99404.72
2023-05-19T11:17:56.906Z,99393.88
2023-05-19T11:20:24.711Z,99398.63
2023-05-19T11:23:03.815Z,99404.69
2023-05-19T11:25:51.615Z,99388.63
2023-05-19T11:28:21.451Z,99394.25
2023-05-19T11:30:52.599Z,99376.16
2023-05-19T11:33:27.327Z,99382.00
2023-05-19T11:35:58.417Z,99378.16
2023-05-19T11:38:26.591Z,99378.59
2023-05-19T11:40:54.346Z,99373.00
2023-05-19T11:43:25.678Z,99340.50
2023-05-19T11:45:53.915Z,99373.38
2023-05-19T11:48:21.792Z,99370.16
2023-05-19T11:50:48.888Z,99381.00
2023-05-19T11:53:17.101Z,99360.63
2023-05-19T11:55:48.545Z,99373.88
2023-05-19T11:58:16.340Z,99375.06
2023-05-19T12:00:46.146Z,99387.50
2023-05-19T12:03:13.673Z,99365.84
2023-05-19T12:05:46.681Z,99367.81
2023-05-19T12:08:16.704Z,99383.09
2023-05-19T12:10:43.825Z,99373.44
2023-05-19T12:13:11.261Z,99387.91
2023-05-19T12:15:38.914Z,99392.69
2023-05-19T12:18:06.867Z,99399.03
2023-05-19T12:20:35.997Z,99409.13
2023-05-19T12:23:04.223Z,99420.28
2023-05-19T12:25:32.408Z,99429.34
2023-05-19T12:28:03.192Z,99429.00
2023-05-19T12:30:32.057Z,99437.06
2023-05-19T12:32:59.644Z,99447.72
2023-05-19T12:35:28.086Z,99463.72
2023-05-19T12:37:55.990Z,99463.78
2023-05-19T12:40:23.298Z,99436.75
2023-05-19T12:42:53.446Z,99427.03
2023-05-19T12:45:23.135Z,99422.22
2023-05-19T12:47:51.496Z,99414.41
2023-05-19T12:50:19.020Z,99443.97
2023-05-19T12:52:48.192Z,99461.00
2023-05-19T12:55:16.752Z,99477.53
2023-05-19T12:57:57.388Z,99469.59
2023-05-19T13:00:28.412Z,99466.53
2023-05-19T13:02:56.458Z,99451.75
2023-05-19T13:05:24.311Z,99447.00
2023-05-19T13:08:22.038Z,99447.22
2023-05-19T13:10:49.868Z,99434.25
2023-05-19T13:13:17.838Z,99432.13
2023-05-19T13:15:46.177Z,99423.44
2023-05-19T13:18:14.751Z,99436.50
2023-05-19T13:20:44.578Z,99425.19
2023-05-19T13:23:12.586Z,99434.84
2023-05-19T13:25:40.062Z,99432.41
2023-05-19T13:28:07.187Z,99435.13
2023-05-19T13:30:39.572Z,99451.38
2023-05-19T13:33:07.011Z,99462.75
2023-05-19T13:35:37.586Z,99454.34
2023-05-19T13:38:11.464Z,99453.31
2023-05-19T13:40:39.804Z,99465.81
2023-05-19T13:43:09.136Z,99445.34
2023-05-19T13:45:36.931Z,99452.06
2023-05-19T13:48:04.210Z,99454.75
2023-05-19T13:50:31.387Z,99444.06
2023-05-19T13:52:58.506Z,99452.16
2023-05-19T13:55:27.488Z,99453.28
2023-05-19T13:57:54.800Z,99447.22
2023-05-19T14:00:22.123Z,99451.03
2023-05-19T14:02:49.263Z,99431.03
2023-05-19T14:05:16.602Z,99420.53
2023-05-19T14:07:44.752Z,99438.97
2023-05-19T14:10:11.806Z,99440.63
2023-05-19T14:12:55.060Z,99437.84
2023-05-19T14:15:27.088Z,99437.78
2023-05-19T14:17:54.336Z,99428.09
2023-05-19T14:20:21.991Z,99440.53
2023-05-19T14:22:48.969Z,99439.69
2023-05-19T14:25:16.289Z,99443.66
2023-05-19T14:27:43.489Z,99440.50
2023-05-19T14:30:10.871Z,99433.31
2023-05-19T14:32:38.097Z,99438.13
2023-05-19T14:35:06.087Z,99445.69
2023-05-19T14:37:33.134Z,99436.47
2023-05-19T14:40:00.465Z,99440.16
2023-05-19T14:42:27.530Z,99434.59
2023-05-19T14:44:54.716Z,99437.59
2023-05-19T14:47:21.847Z,99450.88
2023-05-19T14:49:49.010Z,99446.94
2023-05-19T14:52:16.063Z,99451.28
2023-05-19T14:54:43.612Z,99464.06
2023-05-19T14:57:10.778Z,99464.41
2023-05-19T14:59:38.903Z,99464.19
2023-05-19T15:02:06.670Z,99466.97
2023-05-19T15:04:33.831Z,99451.72
2023-05-19T15:09:30.804Z,99458.28
2023-05-19T15:11:58.249Z,99451.34
2023-05-19T15:14:26.638Z,99460.13
2023-05-19T15:16:54.966Z,99449.69
2023-05-19T15:19:22.053Z,99453.59
2023-05-19T15:21:50.940Z,99452.66
2023-05-19T15:24:18.055Z,99450.94
2023-05-19T15:26:45.847Z,99450.94
2023-05-19T15:29:13.178Z,99455.41
2023-05-19T15:31:40.206Z,99456.22
2023-05-19T15:34:07.362Z,99476.22
2023-05-19T15:36:34.214Z,99458.91
2023-05-19T15:39:01.184Z,99466.06
2023-05-19T15:41:28.382Z,99474.41
2023-05-19T15:43:55.252Z,99479.66
2023-05-19T15:46:22.803Z,99487.63
2023-05-19T15:48:49.874Z,99495.50
2023-05-19T15:51:17.123Z,99489.91
2023-05-19T15:53:44.214Z,99493.72
2023-05-19T15:56:11.341Z,99496.78
2023-05-19T15:58:38.362Z,99504.91
2023-05-19T16:01:06.213Z,99495.66
2023-05-19T16:03:33.383Z,99510.88
2023-05-19T16:06:01.186Z,99493.63
2023-05-19T16:08:28.782Z,99507.22
2023-05-19T16:10:56.208Z,99508.03
2023-05-19T16:13:23.286Z,99500.81
2023-05-19T16:15:50.693Z,99509.97
2023-05-19T16:18:17.823Z,99517.06
2023-05-19T16:20:45.176Z,99519.03
2023-05-19T16:23:12.106Z,99520.13
2023-05-19T16:25:39.153Z,99529.22
2023-05-19T16:28:06.305Z,99536.31
2023-05-19T16:30:33.652Z,99544.94
2023-05-19T16:33:01.170Z,99540.41
2023-05-19T16:35:29.845Z,99520.81
2023-05-19T16:37:56.948Z,99541.19
2023-05-19T16:40:24.622Z,99538.38
2023-05-19T16:42:53.343Z,99534.34
2023-05-19T16:45:20.796Z,99533.13
2023-05-19T16:47:47.935Z,99534.72
2023-05-19T16:50:15.266Z,99529.94
2023-05-19T16:52:42.378Z,99530.13
2023-05-19T16:55:09.906Z,99539.81
2023-05-19T16:57:37.003Z,99530.63
2023-05-19T17:00:04.891Z,99545.03
2023-05-19T17:02:32.151Z,99553.72
2023-05-19T17:04:59.685Z,99543.03
2023-05-19T17:07:29.233Z,99534.78
2023-05-19T17:09:56.271Z,99557.25
2023-05-19T17:12:23.738Z,99533.91
2023-05-19T17:14:52.153Z,99541.47
2023-05-19T17:17:19.746Z,99540.16
2023-05-19T17:19:47.008Z,99534.44
2023-05-19T17:22:14.292Z,99537.91
2023-05-19T17:24:41.515Z,99536.88
2023-05-19T17:27:08.522Z,99541.88
2023-05-19T17:29:36.704Z,99534.41
2023-05-19T17:32:04.212Z,99535.81
2023-05-19T17:34:31.378Z,99538.72
2023-05-19T17:36:58.678Z,99549.88
2023-05-19T17:39:25.733Z,99547.16
2023-05-19T17:41:52.870Z,99533.97
2023-05-19T17:44:19.744Z,99555.09
2023-05-19T17:46:46.734Z,99560.59
2023-05-19T17:49:16.429Z,99570.78
2023-05-19T17:51:44.073Z,99559.63
2023-05-19T17:54:11.315Z,99565.13
2023-05-19T17:56:44.518Z,99547.78
2023-05-19T17:59:11.848Z,99574.28
2023-05-19T18:01:41.719Z,99546.25
2023-05-19T18:04:09.305Z,99568.28
2023-05-19T18:06:41.000Z,99548.59
2023-05-19T18:09:10.948Z,99568.72
2023-05-19T18:11:38.011Z,99570.81
2023-05-19T18:14:04.984Z,99569.91
2023-05-19T18:16:32.093Z,99568.59
2023-05-19T18:19:01.022Z,99585.28
2023-05-19T18:21:28.201Z,99584.63
2023-05-19T18:23:55.267Z,99582.44
2023-05-19T18:26:22.523Z,99576.94
2023-05-19T18:28:51.919Z,99593.59
2023-05-19T18:31:20.270Z,99582.19
2023-05-19T18:33:47.380Z,99598.72
2023-05-19T18:36:16.578Z,99601.41
2023-05-19T18:38:43.749Z,99599.69
2023-05-19T18:41:11.187Z,99605.13
2023-05-19T18:43:39.060Z,99606.66
2023-05-19T18:46:09.205Z,99612.22
2023-05-19T18:48:36.552Z,99606.53
2023-05-19T18:51:03.967Z,99618.81
2023-05-19T18:53:37.130Z,99624.63
2023-05-19T18:56:04.291Z,99620.91
2023-05-19T18:58:32.815Z,99622.28
2023-05-19T19:00:59.871Z,99625.66
2023-05-19T19:03:28.779Z,99637.56
2023-05-19T19:05:56.462Z,99630.41
2023-05-19T19:08:24.570Z,99629.22
2023-05-19T19:10:52.168Z,99629.69
2023-05-19T19:13:19.317Z,99619.28
2023-05-19T19:15:46.755Z,99633.19
2023-05-19T19:18:13.983Z,99623.94
2023-05-19T19:20:41.090Z,99624.94
2023-05-19T19:23:10.726Z,99643.56
2023-05-19T19:25:37.766Z,99637.22
2023-05-19T19:28:05.069Z,99615.22
2023-05-19T19:30:32.355Z,99632.00
2023-05-19T19:33:00.447Z,99624.03
2023-05-19T19:35:27.374Z,99632.72
2023-05-19T19:37:58.679Z,99646.81
2023-05-19T19:40:25.841Z,99645.19
2023-05-19T19:42:52.925Z,99641.94
2023-05-19T19:45:21.034Z,99645.91
2023-05-19T19:47:48.230Z,99639.88
2023-05-19T19:50:15.639Z,99632.72
2023-05-19T19:52:42.523Z,99644.97
2023-05-19T19:55:09.918Z,99632.34
2023-05-19T19:57:37.003Z,99630.03
2023-05-19T20:00:08.377Z,99617.53
2023-05-19T20:02:43.137Z,99622.84
2023-05-19T20:05:18.607Z,99615.09
2023-05-19T20:07:45.650Z,99618.22
2023-05-19T20:10:12.610Z,99630.38
2023-05-19T20:12:39.593Z,99626.31
2023-05-19T20:15:07.474Z,99626.88
2023-05-19T20:17:34.722Z,99630.13
2023-05-19T20:20:04.743Z,99623.53
2023-05-19T20:22:31.834Z,99631.50
2023-05-19T20:24:58.770Z,99627.22
2023-05-19T20:27:25.956Z,99627.00
2023-05-19T20:29:52.851Z,99612.41
2023-05-19T20:32:19.857Z,99617.72
2023-05-19T20:34:46.801Z,99616.69
2023-05-19T20:37:13.990Z,99615.53
2023-05-19T20:39:40.996Z,99625.03
2023-05-19T20:42:08.483Z,99618.75
2023-05-19T20:44:35.847Z,99616.31
2023-05-19T20:47:02.802Z,99616.78
2023-05-19T20:49:29.756Z,99610.09
2023-05-19T20:51:57.105Z,99621.31
2023-05-19T20:54:23.975Z,99613.31
2023-05-19T20:56:51.904Z,99620.63
2023-05-19T20:59:18.993Z,99611.25
2023-05-19T21:01:46.087Z,99609.88
2023-05-19T21:04:13.277Z,99607.91
2023-05-19T21:06:40.249Z,99611.72
2023-05-19T21:09:07.481Z,99603.50
2023-05-19T21:11:34.686Z,99604.19
2023-05-19T21:14:04.555Z,99601.63
2023-05-19T21:16:32.116Z,99607.91
2023-05-19T21:18:59.228Z,99602.22
2023-05-19T21:21:26.505Z,99615.28
2023-05-19T21:23:53.383Z,99612.06
2023-05-19T21:26:21.744Z,99607.31
2023-05-19T21:28:48.814Z,99611.94
2023-05-19T21:31:16.154Z,99614.22
2023-05-19T21:33:43.411Z,99630.19
2023-05-19T21:36:10.475Z,99606.47
2023-05-19T21:38:37.621Z,99621.28
2023-05-19T21:41:04.523Z,99646.97
2023-05-19T21:43:31.520Z,99654.50
2023-05-19T21:45:58.359Z,99638.19
2023-05-19T21:48:25.220Z,99648.34
2023-05-19T21:50:54.908Z,99663.84
2023-05-19T21:53:21.894Z,99651.13
2023-05-19T21:55:49.033Z,99640.91
2023-05-19T21:58:16.291Z,99643.56
2023-05-19T22:00:49.226Z,99642.97
2023-05-19T22:03:16.349Z,99653.84
2023-05-19T22:05:48.816Z,99642.97
2023-05-19T22:08:15.990Z,99646.56
2023-05-19T22:10:42.814Z,99641.34
2023-05-19T22:13:09.799Z,99626.41
2023-05-19T22:15:38.331Z,99635.88
2023-05-19T22:18:05.270Z,99631.38
2023-05-19T22:20:32.476Z,99618.94
2023-05-19T22:23:01.292Z,99631.09
2023-05-19T22:25:28.252Z,99629.34
2023-05-19T22:27:55.465Z,99639.63
2023-05-19T22:30:23.047Z,99633.81
2023-05-19T22:32:50.252Z,99630.91
2023-05-19T22:35:18.899Z,99631.38
2023-05-19T22:37:45.816Z,99620.16
2023-05-19T22:40:13.235Z,99622.44
2023-05-19T22:42:40.194Z,99630.75
2023-05-19T22:45:07.634Z,99631.22
2023-05-19T22:47:34.634Z,99632.84
2023-05-19T22:50:01.587Z,99640.16
2023-05-19T22:52:28.561Z,99619.47
2023-05-19T22:54:55.655Z,99628.25
2023-05-19T22:57:22.633Z,99626.63
2023-05-19T22:59:49.471Z,99633.00
2023-05-19T23:02:16.470Z,99629.06
2023-05-19T23:04:43.390Z,99602.78
2023-05-19T23:07:10.653Z,99630.22
2023-05-19T23:09:37.513Z,99612.03
2023-05-19T23:12:04.758Z,99606.81
2023-05-19T23:14:31.807Z,99612.03
2023-05-19T23:16:58.864Z,99606.16
2023-05-19T23:19:25.808Z,99624.69
2023-05-19T23:21:52.951Z,99617.16
2023-05-19T23:24:19.765Z,99601.53
2023-05-19T23:26:46.724Z,99611.63
2023-05-19T23:29:14.863Z,99605.59
2023-05-19T23:31:42.207Z,99605.13
2023-05-19T23:34:09.198Z,99598.91
2023-05-19T23:36:36.810Z,99598.91
2023-05-19T23:39:03.911Z,99565.78
2023-05-19T23:41:31.624Z,99585.25
2023-05-19T23:43:58.501Z,99586.88
2023-05-19T23:46:25.652Z,99589.19
2023-05-19T23:48:52.731Z,99580.94
2023-05-19T23:51:19.590Z,99584.19
2023-05-19T23:53:46.599Z,99583.72
2023-05-19T23:56:13.694Z,99592.22
2023-05-19T23:58:40.895Z,99584.13
